Airfield :
LOGIN :

Register | Disclaimer

   EN    FR    IT 

 










Legend :    VFR   Marginal VFR   IFR   Intensive IFR   Very Intensive IFR
Visi :
Ceiling :
>= 8 km
>= 3000ft
5 to 8 km
1000 to 3000 ft
1500m to 5 km
500 to 1000 ft
800 to 1500m
200 to 500 ft
< 800m
< 200 ft
Symbols :   Thunderstorms  Fog  Heavy snow  Heavy precipitations  Wind > 20 kt
SIGMETs :     Misc.  Thunderstorms  Icing  Turbulence  Mountain Waves  Volcanic Ashes






- Airport Elevation : 326 ft
- IATA code : LCG


LECO - A Coruna

CURRENT METAR :
  • 171200Z 34011KT 300V030 9999 FEW031 SCT035 12/07 Q1014 NOSIG

EXPIRED METARs :
  • 171130Z 34009KT 290V020 9999 FEW030 FEW031TCU SCT049 12/07 Q1014 NOSIG
  • 171100Z 34014G25KT 290V020 9999 FEW030 FEW031TCU SCT049 12/09 Q1014 NOSIG
  • 171030Z 31003KT 260V010 9999 SCT029 BKN049 12/10 Q1014 NOSIG
  • 171000Z 34006KT 300V040 9999 FEW010 SCT029 BKN041 10/09 Q1014 NOSIG
  • 170948Z 34006KT 290V010 9999 FEW010 SCT025 BKN032 10/09 Q1014 NOSIG
  • 170930Z 33013G24KT 270V010 4500 2000S -RA FEW013 SCT018 BKN026 10/09 Q1014 NOSIG
  • 170919Z 33010G23KT 260V010 4000 -RA FEW018 SCT027 BKN036 11/09 Q1013 NOSIG

TAF TAF LECO
Valid from the 17 at 09:00 until the 18 at 09:00 UTC


170800Z 1709/1809 30009KT 9999 SCT015 BKN030 TX12/1714Z TN08/1808Z
TEMPO 1709/1723 3000 RA SHRA SCT020TCU
PROB30
TEMPO 1718/1721 TSRA SCT020CB
PROB30
TEMPO 1806/1809 1500 +RA SHRA BKN014 BKN020TCU



MET'MAP, your aeronautical weather chart ! - Copyright ORBIFLY December 2007 - Disclaimer

ORBIFLY MET'MAP TEAM :

Programming & Development : Alexandra Zaïnal
Concept & Development : Baudouin d'Aumeries
Co-Development & Prog : Marc-Olivier Méhu
Technical & hardware support : Manuel Goepfert

Contact : metmap@orbifly.com




SOURCES & CREDITS :

   NOAA